Airfield :
LOGIN :

Register | Disclaimer

   EN    FR    IT 

 










Legend :    VFR   Marginal VFR   IFR   Intensive IFR   Very Intensive IFR
Visi :
Ceiling :
>= 8 km
>= 3000ft
5 to 8 km
1000 to 3000 ft
1500m to 5 km
500 to 1000 ft
800 to 1500m
200 to 500 ft
< 800m
< 200 ft
Symbols :   Thunderstorms  Fog  Heavy snow  Heavy precipitations  Wind > 20 kt
SIGMETs :     Misc.  Thunderstorms  Icing  Turbulence  Mountain Waves  Volcanic Ashes






- Airport Elevation : 299 ft
- IATA code : EDM


LFRI - La Roche Sur Yon - Les Ajoncs

CURRENT METAR :
  • 161200Z AUTO 10006KT 060V160 CAVOK 18/09 Q1019 NOSIG

EXPIRED METARs :
  • 161130Z AUTO 10008KT 070V140 CAVOK 17/09 Q1019 NOSIG
  • 161100Z AUTO 09010KT CAVOK 17/09 Q1019 NOSIG
  • 161030Z AUTO 08009KT 050V110 CAVOK 16/09 Q1019 NOSIG
  • 161000Z AUTO 09008KT 060V120 CAVOK 15/09 Q1020 NOSIG
  • 160930Z AUTO 08007KT CAVOK 15/09 Q1020 NOSIG

TAF TAF LFRI
Valid from the 16 at 12:00 until the 17 at 12:00 UTC


161100Z 1612/1712 08009KT CAVOK



MET'MAP, your aeronautical weather chart ! - Copyright ORBIFLY December 2007 - Disclaimer

ORBIFLY MET'MAP TEAM :

Programming & Development : Alexandra Zaïnal
Concept & original design : Baudouin d'Aumeries
Assistance for programming : Marc-Olivier Méhu
Technical & hardware support : Manuel Goepfert

Contact : metmap@orbifly.com




SOURCES & CREDITS :

   NOAA